sensor_id;sensor_type;location;lat;lon;timestamp;pressure;altitude;pressure_sealevel;temperature;humidity
63607;BME280;71992;52.478;-1.918;2023-11-22T00:01:06;101295.75;;;7.13;100.00
63607;BME280;71992;52.478;-1.918;2023-11-22T00:03:37;101292.16;;;7.14;100.00
63607;BME280;71992;52.478;-1.918;2023-11-22T00:06:08;101296.53;;;7.15;100.00
63607;BME280;71992;52.478;-1.918;2023-11-22T00:08:41;101288.53;;;7.17;100.00
63607;BME280;71992;52.478;-1.918;2023-11-22T00:11:14;101279.81;;;7.13;100.00
63607;BME280;71992;52.478;-1.918;2023-11-22T00:13:47;101275.38;;;7.12;100.00
63607;BME280;71992;52.478;-1.918;2023-11-22T00:16:23;101275.50;;;7.07;100.00
63607;BME280;71992;52.478;-1.918;2023-11-22T00:18:53;101275.63;;;7.03;100.00
63607;BME280;71992;52.478;-1.918;2023-11-22T00:21:24;101270.28;;;7.04;100.00
63607;BME280;71992;52.478;-1.918;2023-11-22T00:23:55;101267.63;;;7.04;100.00
63607;BME280;71992;52.478;-1.918;2023-11-22T00:26:25;101262.19;;;7.09;100.00
63607;BME280;71992;52.478;-1.918;2023-11-22T00:29:03;101267.50;;;7.09;100.00
63607;BME280;71992;52.478;-1.918;2023-11-22T00:31:33;101259.66;;;7.04;100.00
63607;BME280;71992;52.478;-1.918;2023-11-22T00:34:05;101262.34;;;7.03;100.00
63607;BME280;71992;52.478;-1.918;2023-11-22T00:36:35;101262.47;;;6.98;100.00
63607;BME280;71992;52.478;-1.918;2023-11-22T00:39:06;101253.53;;;7.01;100.00
63607;BME280;71992;52.478;-1.918;2023-11-22T00:41:36;101258.72;;;7.07;100.00
63607;BME280;71992;52.478;-1.918;2023-11-22T00:44:10;101265.75;;;7.08;100.00
63607;BME280;71992;52.478;-1.918;2023-11-22T00:46:40;101255.69;;;7.19;100.00
63607;BME280;71992;52.478;-1.918;2023-11-22T00:49:13;101248.47;;;7.24;100.00
63607;BME280;71992;52.478;-1.918;2023-11-22T00:51:43;101236.13;;;7.23;100.00
63607;BME280;71992;52.478;-1.918;2023-11-22T00:54:15;101244.19;;;7.20;100.00
63607;BME280;71992;52.478;-1.918;2023-11-22T00:56:46;101232.75;;;7.17;100.00
63607;BME280;71992;52.478;-1.918;2023-11-22T00:59:19;101239.03;;;7.14;100.00
63607;BME280;71992;52.478;-1.918;2023-11-22T01:01:49;101241.78;;;7.11;100.00
63607;BME280;71992;52.478;-1.918;2023-11-22T01:04:21;101245.19;;;7.15;100.00
63607;BME280;71992;52.478;-1.918;2023-11-22T01:06:52;101250.47;;;7.16;100.00
63607;BME280;71992;52.478;-1.918;2023-11-22T01:09:22;101253.13;;;7.18;100.00
63607;BME280;71992;52.478;-1.918;2023-11-22T01:11:52;101251.22;;;7.21;100.00
63607;BME280;71992;52.478;-1.918;2023-11-22T01:14:26;101251.34;;;7.17;100.00
63607;BME280;71992;52.478;-1.918;2023-11-22T01:16:57;101250.38;;;7.19;100.00
63607;BME280;71992;52.478;-1.918;2023-11-22T01:19:27;101250.47;;;7.18;100.00
63607;BME280;71992;52.478;-1.918;2023-11-22T01:21:57;101245.00;;;7.22;100.00
63607;BME280;71992;52.478;-1.918;2023-11-22T01:24:28;101237.97;;;7.20;100.00
63607;BME280;71992;52.478;-1.918;2023-11-22T01:27:00;101246.91;;;7.17;100.00
63607;BME280;71992;52.478;-1.918;2023-11-22T01:29:33;101257.59;;;7.16;100.00
63607;BME280;71992;52.478;-1.918;2023-11-22T01:32:04;101259.41;;;7.14;100.00
63607;BME280;71992;52.478;-1.918;2023-11-22T01:34:35;101258.72;;;7.07;100.00
63607;BME280;71992;52.478;-1.918;2023-11-22T01:37:06;101248.09;;;7.07;100.00
63607;BME280;71992;52.478;-1.918;2023-11-22T01:39:38;101245.31;;;7.11;100.00
63607;BME280;71992;52.478;-1.918;2023-11-22T01:42:09;101245.31;;;7.11;100.00
63607;BME280;71992;52.478;-1.918;2023-11-22T01:44:42;101236.41;;;7.13;100.00
63607;BME280;71992;52.478;-1.918;2023-11-22T01:47:14;101230.09;;;7.17;100.00
63607;BME280;71992;52.478;-1.918;2023-11-22T01:49:45;101228.25;;;7.20;100.00
63607;BME280;71992;52.478;-1.918;2023-11-22T01:52:16;101229.97;;;7.21;100.00
63607;BME280;71992;52.478;-1.918;2023-11-22T01:54:47;101239.59;;;7.25;100.00
63607;BME280;71992;52.478;-1.918;2023-11-22T01:57:17;101242.22;;;7.27;100.00
63607;BME280;71992;52.478;-1.918;2023-11-22T01:59:51;101244.88;;;7.27;100.00
63607;BME280;71992;52.478;-1.918;2023-11-22T02:02:22;101245.81;;;7.24;100.00
63607;BME280;71992;52.478;-1.918;2023-11-22T02:04:52;101236.47;;;7.11;100.00
63607;BME280;71992;52.478;-1.918;2023-11-22T02:07:23;101236.63;;;7.05;100.00
63607;BME280;71992;52.478;-1.918;2023-11-22T02:09:53;101227.84;;;7.01;100.00
63607;BME280;71992;52.478;-1.918;2023-11-22T02:12:25;101218.28;;;6.96;100.00
63607;BME280;71992;52.478;-1.918;2023-11-22T02:14:58;101217.47;;;6.92;100.00
63607;BME280;71992;52.478;-1.918;2023-11-22T02:17:31;101222.75;;;6.94;100.00
63607;BME280;71992;52.478;-1.918;2023-11-22T02:20:02;101222.59;;;7.00;100.00
63607;BME280;71992;52.478;-1.918;2023-11-22T02:22:42;101214.56;;;7.01;100.00
63607;BME280;71992;52.478;-1.918;2023-11-22T02:25:16;101208.44;;;6.99;100.00
63607;BME280;71992;52.478;-1.918;2023-11-22T02:27:46;101213.03;;;6.93;100.00
63607;BME280;71992;52.478;-1.918;2023-11-22T02:30:17;101214.81;;;6.92;100.00
63607;BME280;71992;52.478;-1.918;2023-11-22T02:32:49;101213.13;;;6.89;100.00
63607;BME280;71992;52.478;-1.918;2023-11-22T02:35:19;101218.31;;;6.94;100.00
63607;BME280;71992;52.478;-1.918;2023-11-22T02:37:52;101213.03;;;6.93;100.00
63607;BME280;71992;52.478;-1.918;2023-11-22T02:40:26;101201.66;;;6.87;100.00
63607;BME280;71992;52.478;-1.918;2023-11-22T02:42:56;101206.22;;;6.84;100.00
63607;BME280;71992;52.478;-1.918;2023-11-22T02:45:28;101200.91;;;6.84;100.00
63607;BME280;71992;52.478;-1.918;2023-11-22T02:48:03;101201.75;;;6.84;100.00
63607;BME280;71992;52.478;-1.918;2023-11-22T02:50:37;101212.50;;;6.80;100.00
63607;BME280;71992;52.478;-1.918;2023-11-22T02:53:12;101215.22;;;6.77;100.00
63607;BME280;71992;52.478;-1.918;2023-11-22T02:55:46;101202.84;;;6.77;100.00
63607;BME280;71992;52.478;-1.918;2023-11-22T02:58:19;101195.72;;;6.79;100.00
63607;BME280;71992;52.478;-1.918;2023-11-22T03:00:50;101200.19;;;6.77;100.00
63607;BME280;71992;52.478;-1.918;2023-11-22T03:03:22;101200.25;;;6.74;100.00
63607;BME280;71992;52.478;-1.918;2023-11-22T03:05:52;101196.81;;;6.71;100.00
63607;BME280;71992;52.478;-1.918;2023-11-22T03:08:23;101204.81;;;6.69;100.00
63607;BME280;71992;52.478;-1.918;2023-11-22T03:11:04;101192.53;;;6.65;100.00
63607;BME280;71992;52.478;-1.918;2023-11-22T03:13:34;101182.81;;;6.65;100.00
63607;BME280;71992;52.478;-1.918;2023-11-22T03:16:05;101198.78;;;6.64;100.00
63607;BME280;71992;52.478;-1.918;2023-11-22T03:18:36;101208.56;;;6.62;100.00
63607;BME280;71992;52.478;-1.918;2023-11-22T03:21:07;101211.13;;;6.65;100.00
63607;BME280;71992;52.478;-1.918;2023-11-22T03:23:38;101216.50;;;6.62;100.00
63607;BME280;71992;52.478;-1.918;2023-11-22T03:26:11;101212.22;;;6.56;100.00
63607;BME280;71992;52.478;-1.918;2023-11-22T03:28:42;101219.38;;;6.54;100.00
63607;BME280;71992;52.478;-1.918;2023-11-22T03:31:12;101207.84;;;6.55;100.00
63607;BME280;71992;52.478;-1.918;2023-11-22T03:33:44;101212.28;;;6.55;100.00
63607;BME280;71992;52.478;-1.918;2023-11-22T03:36:14;101196.38;;;6.53;100.00
63607;BME280;71992;52.478;-1.918;2023-11-22T03:38:45;101196.41;;;6.52;100.00
63607;BME280;71992;52.478;-1.918;2023-11-22T03:41:19;101188.50;;;6.50;100.00
63607;BME280;71992;52.478;-1.918;2023-11-22T03:43:49;101189.47;;;6.47;100.00
63607;BME280;71992;52.478;-1.918;2023-11-22T03:46:20;101199.25;;;6.45;100.00
63607;BME280;71992;52.478;-1.918;2023-11-22T03:48:51;101197.56;;;6.41;100.00
63607;BME280;71992;52.478;-1.918;2023-11-22T03:51:21;101190.59;;;6.37;100.00
63607;BME280;71992;52.478;-1.918;2023-11-22T03:53:52;101190.50;;;6.40;100.00
63607;BME280;71992;52.478;-1.918;2023-11-22T03:56:25;101178.16;;;6.39;100.00
63607;BME280;71992;52.478;-1.918;2023-11-22T03:58:56;101157.66;;;6.46;100.00
63607;BME280;71992;52.478;-1.918;2023-11-22T04:01:27;101162.97;;;6.46;100.00
63607;BME280;71992;52.478;-1.918;2023-11-22T04:03:58;101165.59;;;6.47;100.00
63607;BME280;71992;52.478;-1.918;2023-11-22T04:06:28;101174.50;;;6.45;100.00
63607;BME280;71992;52.478;-1.918;2023-11-22T04:09:00;101164.75;;;6.45;100.00
63607;BME280;71992;52.478;-1.918;2023-11-22T04:11:34;101176.31;;;6.43;100.00
63607;BME280;71992;52.478;-1.918;2023-11-22T04:14:04;101179.03;;;6.40;100.00
63607;BME280;71992;52.478;-1.918;2023-11-22T04:16:35;101169.38;;;6.37;100.00
63607;BME280;71992;52.478;-1.918;2023-11-22T04:19:08;101165.81;;;6.38;100.00
63607;BME280;71992;52.478;-1.918;2023-11-22T04:21:38;101163.06;;;6.41;100.00
63607;BME280;71992;52.478;-1.918;2023-11-22T04:24:10;101159.56;;;6.41;100.00
63607;BME280;71992;52.478;-1.918;2023-11-22T04:26:43;101149.84;;;6.40;100.00
63607;BME280;71992;52.478;-1.918;2023-11-22T04:29:14;101155.94;;;6.43;100.00
63607;BME280;71992;52.478;-1.918;2023-11-22T04:31:45;101149.72;;;6.44;100.00
63607;BME280;71992;52.478;-1.918;2023-11-22T04:34:16;101155.09;;;6.43;100.00
63607;BME280;71992;52.478;-1.918;2023-11-22T04:36:47;101137.41;;;6.42;100.00
63607;BME280;71992;52.478;-1.918;2023-11-22T04:39:18;101135.56;;;6.45;100.00
63607;BME280;71992;52.478;-1.918;2023-11-22T04:41:51;101123.03;;;6.51;100.00
63607;BME280;71992;52.478;-1.918;2023-11-22T04:44:23;101123.00;;;6.52;100.00
63607;BME280;71992;52.478;-1.918;2023-11-22T04:46:53;101123.84;;;6.54;100.00
63607;BME280;71992;52.478;-1.918;2023-11-22T04:49:24;101114.97;;;6.54;100.00
63607;BME280;71992;52.478;-1.918;2023-11-22T04:51:55;101118.56;;;6.53;100.00
63607;BME280;71992;52.478;-1.918;2023-11-22T04:54:26;101106.19;;;6.52;100.00
63607;BME280;71992;52.478;-1.918;2023-11-22T04:56:59;101109.75;;;6.51;100.00
63607;BME280;71992;52.478;-1.918;2023-11-22T04:59:29;101119.44;;;6.52;100.00
63607;BME280;71992;52.478;-1.918;2023-11-22T05:02:00;101122.03;;;6.55;100.00
63607;BME280;71992;52.478;-1.918;2023-11-22T05:04:32;101114.19;;;6.50;100.00
63607;BME280;71992;52.478;-1.918;2023-11-22T05:07:03;101117.75;;;6.49;100.00
63607;BME280;71992;52.478;-1.918;2023-11-22T05:09:33;101127.59;;;6.45;100.00
63607;BME280;71992;52.478;-1.918;2023-11-22T05:12:07;101129.38;;;6.45;100.00
63607;BME280;71992;52.478;-1.918;2023-11-22T05:14:38;101124.09;;;6.43;100.00
63607;BME280;71992;52.478;-1.918;2023-11-22T05:17:10;101118.84;;;6.42;100.00
63607;BME280;71992;52.478;-1.918;2023-11-22T05:19:41;101109.91;;;6.44;100.00
63607;BME280;71992;52.478;-1.918;2023-11-22T05:22:13;101112.63;;;6.43;100.00
63607;BME280;71992;52.478;-1.918;2023-11-22T05:24:43;101095.88;;;6.41;100.00
63607;BME280;71992;52.478;-1.918;2023-11-22T05:27:16;101094.09;;;6.41;100.00
63607;BME280;71992;52.478;-1.918;2023-11-22T05:29:47;101103.72;;;6.45;100.00
63607;BME280;71992;52.478;-1.918;2023-11-22T05:32:18;101098.59;;;6.38;100.00
63607;BME280;71992;52.478;-1.918;2023-11-22T05:34:48;101104.03;;;6.33;100.00
63607;BME280;71992;52.478;-1.918;2023-11-22T05:37:19;101103.13;;;6.34;100.00
63607;BME280;71992;52.478;-1.918;2023-11-22T05:39:50;101105.78;;;6.34;100.00
63607;BME280;71992;52.478;-1.918;2023-11-22T05:42:23;101116.41;;;6.33;100.00
63607;BME280;71992;52.478;-1.918;2023-11-22T05:44:55;101119.09;;;6.31;100.00
63607;BME280;71992;52.478;-1.918;2023-11-22T05:47:25;101125.31;;;6.32;100.00
63607;BME280;71992;52.478;-1.918;2023-11-22T05:49:55;101122.59;;;6.33;100.00
63607;BME280;71992;52.478;-1.918;2023-11-22T05:52:26;101117.16;;;6.38;100.00
63607;BME280;71992;52.478;-1.918;2023-11-22T05:54:56;101129.56;;;6.37;100.00
63607;BME280;71992;52.478;-1.918;2023-11-22T05:57:37;101133.19;;;6.33;100.00
63607;BME280;71992;52.478;-1.918;2023-11-22T06:00:10;101134.97;;;6.34;100.00
63607;BME280;71992;52.478;-1.918;2023-11-22T06:02:41;101139.41;;;6.34;100.00
63607;BME280;71992;52.478;-1.918;2023-11-22T06:05:12;101142.00;;;6.35;100.00
63607;BME280;71992;52.478;-1.918;2023-11-22T06:07:43;101138.47;;;6.35;100.00
63607;BME280;71992;52.478;-1.918;2023-11-22T06:10:17;101142.00;;;6.35;100.00
63607;BME280;71992;52.478;-1.918;2023-11-22T06:12:50;101143.78;;;6.35;100.00
63607;BME280;71992;52.478;-1.918;2023-11-22T06:15:20;101150.03;;;6.32;100.00
63607;BME280;71992;52.478;-1.918;2023-11-22T06:17:51;101154.53;;;6.30;100.00
63607;BME280;71992;52.478;-1.918;2023-11-22T06:20:21;101153.69;;;6.28;100.00
63607;BME280;71992;52.478;-1.918;2023-11-22T06:22:54;101152.72;;;6.31;100.00
63607;BME280;71992;52.478;-1.918;2023-11-22T06:25:24;101146.47;;;6.33;100.00
63607;BME280;71992;52.478;-1.918;2023-11-22T06:27:58;101150.06;;;6.31;100.00
63607;BME280;71992;52.478;-1.918;2023-11-22T06:30:28;101152.69;;;6.32;100.00
63607;BME280;71992;52.478;-1.918;2023-11-22T06:33:00;101154.41;;;6.35;100.00
63607;BME280;71992;52.478;-1.918;2023-11-22T06:35:31;101152.59;;;6.37;100.00
63607;BME280;71992;52.478;-1.918;2023-11-22T06:38:01;101160.50;;;6.38;100.00
63607;BME280;71992;52.478;-1.918;2023-11-22T06:40:32;101157.06;;;6.35;100.00
63607;BME280;71992;52.478;-1.918;2023-11-22T06:43:07;101161.56;;;6.31;100.00
63607;BME280;71992;52.478;-1.918;2023-11-22T06:45:38;101151.00;;;6.30;100.00
63607;BME280;71992;52.478;-1.918;2023-11-22T06:48:09;101145.72;;;6.28;100.00
63607;BME280;71992;52.478;-1.918;2023-11-22T06:50:39;101144.84;;;6.27;100.00
63607;BME280;71992;52.478;-1.918;2023-11-22T06:53:10;101147.47;;;6.29;100.00
63607;BME280;71992;52.478;-1.918;2023-11-22T06:55:40;101152.78;;;6.29;100.00
63607;BME280;71992;52.478;-1.918;2023-11-22T06:58:15;101149.25;;;6.28;100.00
63607;BME280;71992;52.478;-1.918;2023-11-22T07:00:46;101150.13;;;6.29;100.00
63607;BME280;71992;52.478;-1.918;2023-11-22T07:03:17;101136.03;;;6.27;100.00
63607;BME280;71992;52.478;-1.918;2023-11-22T07:05:48;101131.56;;;6.29;100.00
63607;BME280;71992;52.478;-1.918;2023-11-22T07:08:19;101134.22;;;6.29;100.00
63607;BME280;71992;52.478;-1.918;2023-11-22T07:10:50;101138.59;;;6.30;100.00
63607;BME280;71992;52.478;-1.918;2023-11-22T07:13:27;101133.25;;;6.32;100.00
63607;BME280;71992;52.478;-1.918;2023-11-22T07:16:01;101111.13;;;6.33;100.00
63607;BME280;71992;52.478;-1.918;2023-11-22T07:18:31;101114.59;;;6.35;100.00
63607;BME280;71992;52.478;-1.918;2023-11-22T07:21:02;101110.16;;;6.35;100.00
63607;BME280;71992;52.478;-1.918;2023-11-22T07:23:33;101115.47;;;6.35;100.00
63607;BME280;71992;52.478;-1.918;2023-11-22T07:26:06;101118.09;;;6.37;100.00
63607;BME280;71992;52.478;-1.918;2023-11-22T07:28:40;101111.03;;;6.36;100.00
63607;BME280;71992;52.478;-1.918;2023-11-22T07:31:10;101110.97;;;6.39;100.00
63607;BME280;71992;52.478;-1.918;2023-11-22T07:33:41;101109.06;;;6.42;100.00
63607;BME280;71992;52.478;-1.918;2023-11-22T07:36:12;101099.38;;;6.43;100.00
63607;BME280;71992;52.478;-1.918;2023-11-22T07:38:43;101099.97;;;6.53;100.00
63607;BME280;71992;52.478;-1.918;2023-11-22T07:41:15;101098.97;;;6.57;100.00
63607;BME280;71992;52.478;-1.918;2023-11-22T07:43:49;101099.81;;;6.59;100.00
63607;BME280;71992;52.478;-1.918;2023-11-22T07:46:21;101098.84;;;6.61;100.00
63607;BME280;71992;52.478;-1.918;2023-11-22T07:48:51;101108.53;;;6.62;100.00
63607;BME280;71992;52.478;-1.918;2023-11-22T07:51:22;101102.25;;;6.66;100.00
63607;BME280;71992;52.478;-1.918;2023-11-22T07:53:55;101089.78;;;6.70;100.00
63607;BME280;71992;52.478;-1.918;2023-11-22T07:56:25;101086.09;;;6.74;100.00
63607;BME280;71992;52.478;-1.918;2023-11-22T07:58:59;101086.03;;;6.77;100.00
63607;BME280;71992;52.478;-1.918;2023-11-22T08:01:29;101090.41;;;6.78;100.00
63607;BME280;71992;52.478;-1.918;2023-11-22T08:04:01;101101.06;;;6.77;100.00
63607;BME280;71992;52.478;-1.918;2023-11-22T08:06:32;101094.81;;;6.79;100.00
63607;BME280;71992;52.478;-1.918;2023-11-22T08:09:03;101107.19;;;6.79;100.00
63607;BME280;71992;52.478;-1.918;2023-11-22T08:11:38;101108.09;;;6.79;100.00
63607;BME280;71992;52.478;-1.918;2023-11-22T08:14:11;101101.75;;;6.83;100.00
63607;BME280;71992;52.478;-1.918;2023-11-22T08:16:42;101094.81;;;6.79;100.00
63607;BME280;71992;52.478;-1.918;2023-11-22T08:19:13;101111.59;;;6.81;100.00
63607;BME280;71992;52.478;-1.918;2023-11-22T08:21:46;101098.34;;;6.80;100.00
63607;BME280;71992;52.478;-1.918;2023-11-22T08:24:16;101098.31;;;6.81;100.00
63607;BME280;71992;52.478;-1.918;2023-11-22T08:26:46;101092.06;;;6.82;100.00
63607;BME280;71992;52.478;-1.918;2023-11-22T08:29:20;101112.47;;;6.80;100.00
63607;BME280;71992;52.478;-1.918;2023-11-22T08:31:50;101127.53;;;6.80;100.00
63607;BME280;71992;52.478;-1.918;2023-11-22T08:34:21;101130.09;;;6.83;100.00
63607;BME280;71992;52.478;-1.918;2023-11-22T08:36:52;101124.88;;;6.80;100.00
63607;BME280;71992;52.478;-1.918;2023-11-22T08:39:25;101135.69;;;6.72;100.00
63607;BME280;71992;52.478;-1.918;2023-11-22T08:41:57;101141.06;;;6.71;100.00
63607;BME280;71992;52.478;-1.918;2023-11-22T08:44:30;101141.09;;;6.69;100.00
63607;BME280;71992;52.478;-1.918;2023-11-22T08:47:02;101141.13;;;6.67;100.00
63607;BME280;71992;52.478;-1.918;2023-11-22T08:49:33;101141.94;;;6.71;100.00
63607;BME280;71992;52.478;-1.918;2023-11-22T08:52:04;101147.22;;;6.73;100.00
63607;BME280;71992;52.478;-1.918;2023-11-22T08:54:34;101146.19;;;6.77;100.00
63607;BME280;71992;52.478;-1.918;2023-11-22T08:57:05;101142.50;;;6.82;100.00
63607;BME280;71992;52.478;-1.918;2023-11-22T08:59:40;101117.66;;;6.85;100.00
63607;BME280;71992;52.478;-1.918;2023-11-22T09:02:11;101118.53;;;6.85;100.00
63607;BME280;71992;52.478;-1.918;2023-11-22T09:04:42;101112.38;;;6.83;100.00
63607;BME280;71992;52.478;-1.918;2023-11-22T09:07:13;101101.63;;;6.88;100.00
63607;BME280;71992;52.478;-1.918;2023-11-22T09:09:48;101089.97;;;6.94;100.00
63607;BME280;71992;52.478;-1.918;2023-11-22T09:12:19;101082.00;;;6.94;100.00
63607;BME280;71992;52.478;-1.918;2023-11-22T09:14:52;101078.41;;;6.95;100.00
63607;BME280;71992;52.478;-1.918;2023-11-22T09:17:23;101079.22;;;6.98;100.00
63607;BME280;71992;52.478;-1.918;2023-11-22T09:19:54;101073.88;;;7.00;100.00
63607;BME280;71992;52.478;-1.918;2023-11-22T09:22:26;101078.38;;;6.96;100.00
63607;BME280;71992;52.478;-1.918;2023-11-22T09:24:56;101084.50;;;7.00;100.00
63607;BME280;71992;52.478;-1.918;2023-11-22T09:27:26;101094.16;;;7.02;100.00
63607;BME280;71992;52.478;-1.918;2023-11-22T09:29:59;101081.59;;;7.07;100.00
63607;BME280;71992;52.478;-1.918;2023-11-22T09:32:30;101085.91;;;7.11;100.00
63607;BME280;71992;52.478;-1.918;2023-11-22T09:35:00;101079.66;;;7.13;100.00
63607;BME280;71992;52.478;-1.918;2023-11-22T09:37:31;101065.53;;;7.12;100.00
63607;BME280;71992;52.478;-1.918;2023-11-22T09:40:03;101046.78;;;7.17;100.00
63607;BME280;71992;52.478;-1.918;2023-11-22T09:42:37;101045.75;;;7.22;100.00
63607;BME280;71992;52.478;-1.918;2023-11-22T09:45:11;101054.63;;;7.21;100.00
63607;BME280;71992;52.478;-1.918;2023-11-22T09:47:45;101053.44;;;7.31;100.00
63607;BME280;71992;52.478;-1.918;2023-11-22T09:50:19;101042.66;;;7.36;100.00
63607;BME280;71992;52.478;-1.918;2023-11-22T09:52:50;101040.72;;;7.41;100.00
63607;BME280;71992;52.478;-1.918;2023-11-22T09:55:21;101035.13;;;7.49;100.00
63607;BME280;71992;52.478;-1.918;2023-11-22T09:57:56;101044.88;;;7.50;100.00
63607;BME280;71992;52.478;-1.918;2023-11-22T10:00:32;101047.31;;;7.56;100.00
63607;BME280;71992;52.478;-1.918;2023-11-22T10:03:03;101064.06;;;7.58;100.00
63607;BME280;71992;52.478;-1.918;2023-11-22T10:05:33;101071.34;;;7.53;100.00
63607;BME280;71992;52.478;-1.918;2023-11-22T10:08:05;101084.63;;;7.53;100.00
63607;BME280;71992;52.478;-1.918;2023-11-22T10:10:37;101089.84;;;7.56;100.00
63607;BME280;71992;52.478;-1.918;2023-11-22T10:13:07;101099.47;;;7.60;100.00
63607;BME280;71992;52.478;-1.918;2023-11-22T10:15:40;101096.66;;;7.65;100.00
63607;BME280;71992;52.478;-1.918;2023-11-22T10:18:11;101100.97;;;7.69;100.00
63607;BME280;71992;52.478;-1.918;2023-11-22T10:20:42;101091.03;;;7.74;100.00
63607;BME280;71992;52.478;-1.918;2023-11-22T10:23:14;101086.50;;;7.78;100.00
63607;BME280;71992;52.478;-1.918;2023-11-22T10:25:47;101081.97;;;7.81;100.00
63607;BME280;71992;52.478;-1.918;2023-11-22T10:28:20;101088.00;;;7.86;100.00
63607;BME280;71992;52.478;-1.918;2023-11-22T10:30:54;101085.22;;;7.89;100.00
63607;BME280;71992;52.478;-1.918;2023-11-22T10:33:24;101092.19;;;7.93;100.00
63607;BME280;71992;52.478;-1.918;2023-11-22T10:35:55;101107.19;;;7.96;100.00
63607;BME280;71992;52.478;-1.918;2023-11-22T10:38:25;101101.03;;;7.94;100.00
63607;BME280;71992;52.478;-1.918;2023-11-22T10:40:56;101093.06;;;7.94;100.00
63607;BME280;71992;52.478;-1.918;2023-11-22T10:43:29;101087.56;;;7.99;100.00
63607;BME280;71992;52.478;-1.918;2023-11-22T10:46:05;101098.88;;;8.05;100.00
63607;BME280;71992;52.478;-1.918;2023-11-22T10:48:37;101073.97;;;8.08;100.00
63607;BME280;71992;52.478;-1.918;2023-11-22T10:51:07;101070.28;;;8.12;100.00
63607;BME280;71992;52.478;-1.918;2023-11-22T10:53:42;101070.47;;;8.06;100.00
63607;BME280;71992;52.478;-1.918;2023-11-22T10:56:17;101053.41;;;8.13;100.00
63607;BME280;71992;52.478;-1.918;2023-11-22T10:58:50;101018.59;;;8.19;100.00
63607;BME280;71992;52.478;-1.918;2023-11-22T11:01:24;101081.44;;;8.23;100.00
63607;BME280;71992;52.478;-1.918;2023-11-22T11:04:00;101084.94;;;8.24;100.00
63607;BME280;71992;52.478;-1.918;2023-11-22T11:06:34;101083.97;;;8.26;100.00
63607;BME280;71992;52.478;-1.918;2023-11-22T11:09:05;101080.28;;;8.30;100.00
63607;BME280;71992;52.478;-1.918;2023-11-22T11:11:37;101058.91;;;8.33;100.00
63607;BME280;71992;52.478;-1.918;2023-11-22T11:14:09;101058.66;;;8.40;100.00
63607;BME280;71992;52.478;-1.918;2023-11-22T11:16:43;101053.22;;;8.44;100.00
63607;BME280;71992;52.478;-1.918;2023-11-22T11:19:16;101038.81;;;8.50;100.00
63607;BME280;71992;52.478;-1.918;2023-11-22T11:21:49;101044.97;;;8.52;100.00
63607;BME280;71992;52.478;-1.918;2023-11-22T11:24:20;101034.19;;;8.55;100.00
63607;BME280;71992;52.478;-1.918;2023-11-22T11:26:51;101030.56;;;8.57;100.00
63607;BME280;71992;52.478;-1.918;2023-11-22T11:29:31;101020.75;;;8.58;100.00
63607;BME280;71992;52.478;-1.918;2023-11-22T11:32:06;101026.00;;;8.61;100.00
63607;BME280;71992;52.478;-1.918;2023-11-22T11:34:47;101013.66;;;8.59;100.00
63607;BME280;71992;52.478;-1.918;2023-11-22T11:37:19;101007.34;;;8.61;100.00
63607;BME280;71992;52.478;-1.918;2023-11-22T11:39:50;101005.56;;;8.62;100.00
63607;BME280;71992;52.478;-1.918;2023-11-22T11:42:23;101000.28;;;8.60;100.00
63607;BME280;71992;52.478;-1.918;2023-11-22T11:45:03;101008.16;;;8.63;100.00
63607;BME280;71992;52.478;-1.918;2023-11-22T11:47:39;100996.41;;;8.69;100.00
63607;BME280;71992;52.478;-1.918;2023-11-22T11:50:12;100998.88;;;8.73;100.00
63607;BME280;71992;52.478;-1.918;2023-11-22T11:52:42;100996.19;;;8.75;100.00
63607;BME280;71992;52.478;-1.918;2023-11-22T11:55:13;101003.22;;;8.76;100.00
63607;BME280;71992;52.478;-1.918;2023-11-22T11:57:46;100999.66;;;8.77;100.00
63607;BME280;71992;52.478;-1.918;2023-11-22T12:00:17;101001.38;;;8.78;100.00
63607;BME280;71992;52.478;-1.918;2023-11-22T12:02:52;100996.81;;;8.82;100.00
63607;BME280;71992;52.478;-1.918;2023-11-22T12:05:23;100994.06;;;8.83;100.00
63607;BME280;71992;52.478;-1.918;2023-11-22T12:07:55;100986.88;;;8.85;100.00
63607;BME280;71992;52.478;-1.918;2023-11-22T12:10:26;100976.06;;;8.90;100.00
63607;BME280;71992;52.478;-1.918;2023-11-22T12:12:57;100983.06;;;8.92;100.00
63607;BME280;71992;52.478;-1.918;2023-11-22T12:15:28;100970.63;;;8.93;100.00
63607;BME280;71992;52.478;-1.918;2023-11-22T12:18:03;100974.03;;;8.96;100.00
63607;BME280;71992;52.478;-1.918;2023-11-22T12:20:35;100964.19;;;8.98;100.00
63607;BME280;71992;52.478;-1.918;2023-11-22T12:23:06;100964.84;;;9.04;100.00
63607;BME280;71992;52.478;-1.918;2023-11-22T12:25:37;100973.66;;;9.06;100.00
63607;BME280;71992;52.478;-1.918;2023-11-22T12:28:08;100967.34;;;9.08;100.00
63607;BME280;71992;52.478;-1.918;2023-11-22T12:30:42;100960.97;;;9.12;100.00
63607;BME280;71992;52.478;-1.918;2023-11-22T12:33:16;100963.34;;;9.20;100.00
63607;BME280;71992;52.478;-1.918;2023-11-22T12:35:47;100945.97;;;9.32;100.00
63607;BME280;71992;52.478;-1.918;2023-11-22T12:38:18;100936.66;;;9.42;100.00
63607;BME280;71992;52.478;-1.918;2023-11-22T12:40:48;100935.47;;;9.49;100.00
63607;BME280;71992;52.478;-1.918;2023-11-22T12:43:19;100939.63;;;9.56;100.00
63607;BME280;71992;52.478;-1.918;2023-11-22T12:45:57;100935.94;;;9.59;100.00
63607;BME280;71992;52.478;-1.918;2023-11-22T12:48:31;100938.47;;;9.62;100.00
63607;BME280;71992;52.478;-1.918;2023-11-22T12:51:01;100951.69;;;9.65;100.00
63607;BME280;71992;52.478;-1.918;2023-11-22T12:53:33;100954.22;;;9.68;100.00
63607;BME280;71992;52.478;-1.918;2023-11-22T12:56:03;100954.16;;;9.70;100.00
63607;BME280;71992;52.478;-1.918;2023-11-22T12:58:36;100958.50;;;9.72;100.00
63607;BME280;71992;52.478;-1.918;2023-11-22T13:01:06;100951.22;;;9.76;100.00
63607;BME280;71992;52.478;-1.918;2023-11-22T13:03:39;100956.44;;;9.79;100.00